Antti Toivio

Chefscout - HJK
2 Jul 2028
Sonntag
Verarbeitung

Persönlichkeit

Anpassungsfähigkeit (1) Ehrgeiz (10) Kontroverse (1) Loyalität (16) Druck (10) Professionalität (3) Fairness (19) Temperament (3)

Profil

Trainerstil Demokratisch
Lizenz Kontinentale B
Entschlossenheit 8
Menschenführung 7
Motivation 11
Disziplin 11
Arbeitszufriedenheit
100%
Ermüdung
0%
Rolle Chefscout
Gehalt 54.6K p/W
Vertrag 14.03.2030

Leistung

Verhalten Gut
Trainingseffektivität
38%
Spielerentwicklung
30%
Verletzungsprävention
40%
Taktische Umsetzung
45%

Letzte Ereignisse

Nahm an einer Scouting-Besprechung teil jetzt
Empfahl ein Transferziel jetzt
Empfahl ein Transferziel jetzt
Empfahl ein Transferziel jetzt
Empfahl ein Transferziel jetzt
Empfahl ein Transferziel jetzt
Empfahl ein Transferziel 7T her
Nahm an einer Scouting-Besprechung teil 7T her

Aktuell beobachtet

128
Spieler Verein Status Fähigkeit Vertrauen Beobachtet Zuletzt beobachtet Letzte Stimme
Job Ochieng Real Sociedad Aktiv 106 / 118 40% 1 28.03.2028 -
Harry Anderson Bristol Rovers Aktiv 113 / 113 40% 1 28.03.2028 -
Rio Kyerematen Tranmere Rovers Aktiv 115 / 99 40% 1 28.03.2028 -
Jayden Turfkruier VPS Aktiv 96 / 110 76% 1 21.02.2028 Befürworten
Erick Coavoy KuPS Aktiv 91 / 97 76% 1 14.02.2028 Befürworten
Goudouss Bamba Ilves Aktiv 99 / 96 76% 1 07.02.2028 Befürworten
Juuso Hämäläinen Inter Turku Verhandlung 84 / 95 76% 1 01.02.2028 Befürworten
Julián Bragado Morón Aktiv 87 / 81 40% 2 29.01.2028 -
Ryan Kavuma-McQueen Accrington Stanley Aktiv 112 / 134 40% 1 29.01.2028 -
Artur Kozyrev Volna Aktiv 91 / 96 40% 4 28.01.2028 -
Nazif Inoussa Benfica Aktiv 77 / 80 40% 2 28.01.2028 -
Ware Peter Natana Mjondalen Aktiv 85 / 87 40% 2 26.01.2028 -
Kirill Stepanov Baltika Aktiv 83 / 76 40% 2 26.01.2028 -
Facundo Rodríguez Talleres Aktiv 85 / 94 40% 2 25.01.2028 -
Víctor Guzmán Sporting CP Aktiv 100 / 96 40% 2 25.01.2028 -
Maxim Mitskevich Sioni Aktiv 60 / 79 40% 1 25.01.2028 -
Axel Pedrozo Almagro Aktiv 85 / 85 40% 1 24.01.2028 -
Asanele Shibe Molodechno Aktiv 76 / 77 40% 1 24.01.2028 -
Igor Tyjon Barrow AFC Aktiv 120 / 124 40% 5 23.01.2028 -
Joshua Ajala Walsall Aktiv 94 / 113 40% 2 23.01.2028 -
Kevin Filling AIK Aktiv 106 / 118 40% 1 23.01.2028 Mehr Infos nötig
Fletcher Boyd Accrington Stanley Aktiv 102 / 111 40% 4 22.01.2028 -
Omar Bautista Gerez Central Córdoba SdE Aktiv 88 / 88 40% 3 21.01.2028 -
Aapo Ruohio KTP Aktiv 67 / 74 40% 2 21.01.2028 -
Ramiro Jara Racing Aktiv 83 / 91 40% 1 20.01.2028 -
Jakob Gunnar Sigurðsson KR Aktiv 95 / 95 40% 2 19.01.2028 -
Timofey Simanenka Gomel Aktiv 98 / 102 40% 2 19.01.2028 -
Dániel Pintér Inter Miami CF Aktiv 97 / 93 40% 2 16.01.2028 -
Alex Valencia Morelia Aktiv 91 / 94 40% 1 16.01.2028 -
Dani Ángel Sampdoria Aktiv 109 / 102 40% 3 15.01.2028 -
Elion Krosa Odd Aktiv 83 / 90 40% 2 15.01.2028 -
Jake Evans Crewe Alexandra Aktiv 110 / 129 40% 2 15.01.2028 -
Vincenzo Damiano Atalanta Aktiv 95 / 100 40% 2 14.01.2028 -
Diego Robles Union Espanola Aktiv 83 / 94 40% 1 14.01.2028 -
Richard Ferrington Stabaek Aktiv 101 / 98 40% 1 14.01.2028 -
Gabriel Mujica Envigado Aktiv 87 / 94 40% 2 07.01.2028 -
Nicolas Verkooijen PSV Aktiv 119 / 121 40% 1 07.01.2028 -
Ivan Denysov Rukh Aktiv 77 / 99 40% 1 05.01.2028 -
Enrique Aguilar Red Bull Salzburg Aktiv 92 / 98 40% 1 05.01.2028 -
Julian Hall Real Salt Lake Aktiv 108 / 108 40% 2 01.01.2028 -
Baba N'Diaye Chaika Aktiv 91 / 80 40% 2 01.01.2028 -
Teboho Zwane Ajax Cape Town Aktiv 94 / 118 40% 2 01.01.2028 -
Itumeleng Hlatshwayo SuperSport United Aktiv 86 / 90 40% 1 30.12.2027 -
Anthony da Costa Artigas Aktiv 77 / 95 40% 1 29.12.2027 -
Luis Yanes Real Cartagena Aktiv 95 / 91 40% 2 27.12.2027 -
Lamin Sillah Exeter City Aktiv 109 / 111 40% 1 26.12.2027 -
Daniel Johan Skaarud Sandefjord Aktiv 99 / 111 40% 3 24.12.2027 -
Matías Acevedo Racing Club Aktiv 111 / 114 40% 1 24.12.2027 -
Matvey Susha Naftan Aktiv 72 / 86 40% 1 23.12.2027 -
Kirill Cheburakov Rostov Aktiv 76 / 87 40% 1 22.12.2027 -
Luighi Palmeiras Aktiv 108 / 108 40% 1 19.12.2027 -
Kabiru Abdullahi Barau Aktiv 90 / 88 40% 1 18.12.2027 -
Idris Ajiya Nasarawa United Aktiv 88 / 88 40% 1 17.12.2027 -
Mille Eriksson GIF Sundsvall Aktiv 79 / 83 40% 1 16.12.2027 -
Ruben Ramos LA Galaxy Aktiv 95 / 106 40% 1 16.12.2027 -
Daniel Barrea Godoy Cruz Aktiv 125 / 128 40% 4 13.12.2027 -
Martín García Atlanta Aktiv 119 / 115 40% 1 13.12.2027 -
Brian Guerra Chaco For Ever Aktiv 112 / 102 40% 1 13.12.2027 -
Federico Bisanz Atlanta Aktiv 119 / 106 40% 1 12.12.2027 -
Philippe Nguyen Tours Aktiv 93 / 120 40% 1 12.12.2027 -
Gonzalo Asis Almagro Aktiv 110 / 108 40% 1 10.12.2027 -
Idrissa Guèye Virtus Entella Aktiv 121 / 123 40% 1 10.12.2027 -
Delfor Minervino Estudiantes Aktiv 121 / 119 40% 1 08.12.2027 -
Oscar Garrido Mitre Aktiv 117 / 116 40% 1 08.12.2027 -
Rodrigo González Mitre Aktiv 118 / 118 40% 6 07.12.2027 -
Manuel Mónaco Sarmiento Aktiv 119 / 122 40% 1 07.12.2027 -
Augusto Berrondo Tristán Suárez Aktiv 116 / 114 40% 3 06.12.2027 -
Martín Campos Ferro Carril Oeste Aktiv 118 / 111 40% 1 06.12.2027 -
Juan David Rueda Alianza Petrolera Aktiv 109 / 117 40% 1 06.12.2027 -
Abdullahi Mohammad Kwara United Aktiv 78 / 86 40% 1 06.12.2027 -
Franco Camargo Gimnasia y Esgrima Aktiv 110 / 105 40% 1 03.12.2027 -
Ramón González Almirante Brown Aktiv 108 / 115 40% 2 29.11.2027 -
Johan Campaña Patriotas Aktiv 108 / 118 40% 2 29.11.2027 -
Nicolás Retamar Ferro Carril Oeste Aktiv 123 / 110 40% 2 28.11.2027 -
Giorgi Beridze Dinamo Tbilisi Aktiv 114 / 98 40% 3 28.11.2027 -
Leandro Allende Colón Aktiv 117 / 110 40% 3 28.11.2027 -
Santiago Sala Güemes Aktiv 111 / 119 40% 1 23.11.2027 -
Alejo Dramisino Atlanta Aktiv 119 / 113 40% 3 22.11.2027 -
Tomás Fernández Aldosivi Aktiv 121 / 111 40% 2 21.11.2027 -
Diego Gaitán Maipú Aktiv 111 / 116 40% 2 20.11.2027 -
Nicolás Laméndola Atlético Tucumán Aktiv 119 / 122 40% 1 19.11.2027 -
Iñaki Larthirigoyen San Telmo Aktiv 117 / 130 40% 2 18.11.2027 -
Renzo Tesuri Atlético Tucumán Aktiv 129 / 125 40% 1 18.11.2027 -
Santiago Martínez Godoy Cruz Aktiv 109 / 117 40% 1 18.11.2027 -
Gastón Moreyra Almirante Brown Aktiv 115 / 116 40% 1 17.11.2027 -
Pedro Souto Temperley Aktiv 114 / 115 40% 1 17.11.2027 -
Julián Cosi Madryn Aktiv 111 / 115 40% 1 16.11.2027 -
Estanislao Jara Madryn Aktiv 108 / 113 40% 1 16.11.2027 -
Alexandr Lomovitskiy Torpedo-BelAZ Aktiv 105 / 100 40% 1 15.11.2027 -
Juan Infante Atlético Tucumán Aktiv 120 / 118 40% 1 11.11.2027 -
Antony Alonso Deportivo Riestra Aktiv 127 / 115 40% 1 11.11.2027 -
Maico Quiroz Güemes Aktiv 112 / 117 40% 1 11.11.2027 -
Fernando Bersano Madryn Aktiv 121 / 118 40% 1 09.11.2027 -
Bautista Carboni Defensores Unidos Aktiv 109 / 114 40% 1 08.11.2027 -
Franco Vedoya Central Norte Aktiv 113 / 109 40% 1 04.11.2027 -
Kasper Paananen SJK Aktiv 109 / 108 76% 1 16.08.2027 Befürworten
Martti Haukioja VPS Aktiv 91 / 95 76% 1 17.07.2027 Befürworten
Rodrigo Freitas KTP Aktiv 62 / 65 30% 1 / 1m 12.05.2027 -
Garrik Levin Chelyabinsk Aktiv 92 / 95 40% 1 24.02.2027 -
Reda Khadra Qarabag Aktiv 136 / 142 40% 1 18.02.2027 -
Ronaldo Vásquez Sumgayit Aktiv 111 / 106 40% 1 18.02.2027 -
Temirkan Sundukov Dinamo Makhachkala Aktiv 102 / 122 40% 3 17.02.2027 -
Đorđe Pantelić Spartak Kostroma Aktiv 107 / 96 40% 1 17.02.2027 -
Kirill Danilin Ural Aktiv 116 / 108 40% 1 17.02.2027 -
Bojan Roganović Torpedo Moscow Aktiv 106 / 109 40% 2 30.01.2027 -
Pavel Maslov Chaika Aktiv 107 / 108 40% 1 28.01.2027 -
Marat Bokoev Akron Aktiv 112 / 111 40% 4 27.01.2027 -
Robert Mejía Orenburg Aktiv 122 / 108 40% 1 27.01.2027 -
Nathan Gassama Baltika Aktiv 110 / 110 40% 2 26.01.2027 -
Gonzalo Gamarra Floriana Aktiv 106 / 88 40% 1 25.01.2027 -
Mateo Ortale Khazar Aktiv 96 / 118 40% 1 25.01.2027 -
Alex Bangura Middlesbrough Aktiv 124 / 129 40% 2 23.01.2027 -
Edgardo Fariña Nizhniy Novgorod Aktiv 116 / 121 40% 1 20.01.2027 -
Kauan Floriana Aktiv 104 / 87 40% 2 19.01.2027 -
Zakaria El Ouahdi Hamburger SV Aktiv 135 / 129 40% 1 19.01.2027 -
Arsen Adamov Akhmat Grozny Aktiv 126 / 123 40% 1 18.01.2027 -
Pedro Bicalho Qarabag Aktiv 122 / 126 40% 1 08.01.2027 -
Ruslan Litvinov Spartak Moscow Aktiv 135 / 123 40% 1 18.12.2026 -
Francho Serrano Getafe Aktiv 112 / 110 40% 1 06.10.2026 -
Manu Morlanes Mallorca Aktiv 144 / 146 40% 1 06.10.2026 -
Kamil Conteh Bristol Rovers Aktiv 107 / 102 40% 1 05.10.2026 -
Benjamin Böckle Altach Aktiv 109 / 102 40% 1 08.09.2026 -
Jandro Orellana Cádiz Aktiv 119 / 110 40% 1 08.09.2026 -
Patricio Pizarro Huracán Aktiv 116 / 107 40% 1 07.09.2026 -
Joaquín Rivero Instituto Aktiv 86 / 99 40% 1 03.08.2026 -
Rafael Lopes Anorthosis Aktiv 109 / 117 40% 1 03.08.2026 -
Carles Pérez Girona Aktiv 123 / 119 40% 1 01.08.2026 -
Urko Izeta Cádiz Aktiv 125 / 139 40% 1 01.08.2026 -